createdAt,value
2022-10-23T00:01:15.177Z,2.90
2022-10-23T00:03:42.746Z,3.00
2022-10-23T00:06:10.605Z,3.20
2022-10-23T00:08:37.796Z,2.70
2022-10-23T00:11:09.522Z,2.20
2022-10-23T00:13:36.958Z,2.30
2022-10-23T00:16:03.904Z,1.90
2022-10-23T00:18:31.103Z,2.10
2022-10-23T00:20:57.923Z,2.30
2022-10-23T00:23:25.137Z,2.10
2022-10-23T00:25:51.874Z,2.20
2022-10-23T00:28:18.522Z,2.30
2022-10-23T00:30:45.196Z,2.00
2022-10-23T00:33:11.975Z,2.30
2022-10-23T00:35:40.503Z,2.70
2022-10-23T00:38:08.995Z,2.60
2022-10-23T00:40:37.041Z,2.90
2022-10-23T00:43:04.582Z,3.00
2022-10-23T00:45:32.857Z,3.20
2022-10-23T00:48:01.413Z,3.30
2022-10-23T00:50:32.897Z,3.50
2022-10-23T00:53:03.033Z,4.10
2022-10-23T00:55:31.717Z,4.20
2022-10-23T00:57:58.703Z,4.50
2022-10-23T01:00:31.365Z,5.30
2022-10-23T01:02:59.468Z,5.80
2022-10-23T01:05:44.300Z,6.10
2022-10-23T01:08:35.187Z,6.10
2022-10-23T01:11:40.420Z,5.90
2022-10-23T01:14:26.094Z,6.10
2022-10-23T01:17:17.159Z,5.60
2022-10-23T01:19:54.310Z,6.00
2022-10-23T01:22:33.419Z,6.00
2022-10-23T01:25:10.716Z,5.80
2022-10-23T01:27:46.834Z,5.80
2022-10-23T01:30:16.295Z,5.90
2022-10-23T01:32:48.724Z,5.60
2022-10-23T01:35:22.087Z,6.00
2022-10-23T01:38:10.931Z,5.90
2022-10-23T01:40:49.923Z,5.50
2022-10-23T01:43:25.396Z,5.40
2022-10-23T01:46:00.557Z,4.80
2022-10-23T01:48:29.612Z,4.30
2022-10-23T01:51:01.925Z,4.20
2022-10-23T01:53:33.392Z,3.80
2022-10-23T01:56:03.613Z,4.20
2022-10-23T01:58:33.103Z,4.10
2022-10-23T02:01:05.233Z,3.80
2022-10-23T02:03:36.491Z,4.40
2022-10-23T02:06:03.618Z,4.30
2022-10-23T02:08:31.410Z,4.60
2022-10-23T02:11:01.165Z,4.40
2022-10-23T02:13:27.966Z,4.40
2022-10-23T02:16:13.982Z,4.80
2022-10-23T02:19:16.477Z,4.60
2022-10-23T02:21:58.540Z,4.50
2022-10-23T02:24:37.375Z,4.50
2022-10-23T02:27:12.471Z,4.20
2022-10-23T02:29:48.729Z,4.50
2022-10-23T02:32:19.449Z,4.90
2022-10-23T02:34:47.785Z,5.00
2022-10-23T02:37:15.543Z,5.10
2022-10-23T02:39:42.483Z,4.90
2022-10-23T02:42:33.788Z,4.40
2022-10-23T02:45:21.005Z,4.50
2022-10-23T02:47:56.994Z,4.80
2022-10-23T02:50:32.637Z,4.90
2022-10-23T02:53:18.534Z,5.30
2022-10-23T02:56:02.848Z,5.30
2022-10-23T02:59:05.547Z,5.50
2022-10-23T03:01:42.227Z,5.80
2022-10-23T03:04:11.196Z,5.70
2022-10-23T03:06:38.437Z,5.70
2022-10-23T03:09:07.815Z,5.90
2022-10-23T03:11:35.430Z,5.90
2022-10-23T03:14:02.919Z,6.40
2022-10-23T03:16:29.717Z,7.00
2022-10-23T03:18:56.531Z,7.30
2022-10-23T03:21:23.932Z,6.60
2022-10-23T03:23:52.637Z,6.80
2022-10-23T03:26:25.033Z,7.10
2022-10-23T03:28:51.703Z,6.90
2022-10-23T03:31:19.242Z,7.90
2022-10-23T03:33:46.253Z,7.30
2022-10-23T03:36:12.873Z,7.60
2022-10-23T03:38:40.051Z,8.50
2022-10-23T03:41:06.727Z,8.00
2022-10-23T03:43:33.492Z,7.80
2022-10-23T03:46:01.473Z,8.50
2022-10-23T03:48:28.199Z,8.30
2022-10-23T03:50:58.250Z,8.90
2022-10-23T03:53:24.985Z,9.70
2022-10-23T03:55:51.797Z,8.90
2022-10-23T03:58:18.534Z,8.10
2022-10-23T04:00:45.351Z,8.90
2022-10-23T04:03:12.248Z,8.80
2022-10-23T04:05:41.441Z,8.70
2022-10-23T04:08:09.400Z,9.20
2022-10-23T04:10:36.634Z,8.80
2022-10-23T04:13:03.364Z,8.10
2022-10-23T04:15:34.883Z,9.40
2022-10-23T04:18:02.188Z,8.90
2022-10-23T04:20:31.401Z,9.10
2022-10-23T04:23:01.844Z,9.10
2022-10-23T04:25:28.797Z,8.60
2022-10-23T04:27:55.589Z,8.50
2022-10-23T04:30:22.293Z,10.70
2022-10-23T04:32:52.325Z,9.00
2022-10-23T04:35:19.645Z,9.80
2022-10-23T04:37:46.709Z,9.50
2022-10-23T04:40:13.691Z,8.00
2022-10-23T04:42:40.592Z,8.20
2022-10-23T04:45:07.896Z,8.30
2022-10-23T04:47:35.388Z,8.40
2022-10-23T04:50:03.168Z,10.50
2022-10-23T04:52:48.671Z,14.20
2022-10-23T04:55:48.962Z,12.60
2022-10-23T04:58:23.007Z,10.00
2022-10-23T05:00:50.735Z,10.60
2022-10-23T05:03:25.034Z,11.20
2022-10-23T05:05:54.832Z,10.70
2022-10-23T05:08:27.884Z,9.40
2022-10-23T05:11:13.257Z,8.90
2022-10-23T05:13:44.297Z,8.70
2022-10-23T05:16:20.845Z,8.40
2022-10-23T05:18:48.465Z,8.10
2022-10-23T05:21:25.443Z,7.00
2022-10-23T05:23:54.070Z,7.10
2022-10-23T05:26:22.075Z,6.70
2022-10-23T05:28:49.334Z,6.80
2022-10-23T05:31:19.264Z,6.80
2022-10-23T05:33:50.397Z,8.30
2022-10-23T05:36:19.634Z,8.30
2022-10-23T05:38:46.709Z,9.10
2022-10-23T05:41:16.772Z,8.60
2022-10-23T05:43:45.606Z,8.80
2022-10-23T05:46:31.017Z,9.90
2022-10-23T05:49:15.310Z,9.60
2022-10-23T05:51:52.968Z,9.80
2022-10-23T05:54:29.961Z,9.70
2022-10-23T05:57:23.336Z,9.10
2022-10-23T05:59:52.222Z,9.50
2022-10-23T06:02:38.090Z,9.50
2022-10-23T06:05:10.538Z,7.50
2022-10-23T06:07:40.509Z,6.80
2022-10-23T06:10:08.018Z,7.00
2022-10-23T06:12:38.612Z,6.30
2022-10-23T06:15:06.479Z,5.90
2022-10-23T06:18:03.895Z,6.00
2022-10-23T06:20:37.762Z,5.40
2022-10-23T06:23:16.198Z,6.00
2022-10-23T06:26:04.368Z,6.50
2022-10-23T06:28:38.316Z,6.20
2022-10-23T06:31:06.387Z,5.80
2022-10-23T06:33:33.780Z,6.40
2022-10-23T06:36:04.909Z,5.90
2022-10-23T06:38:37.016Z,6.00
2022-10-23T06:41:04.703Z,6.00
2022-10-23T06:43:35.599Z,6.30
2022-10-23T06:46:16.466Z,6.70
2022-10-23T06:49:02.837Z,8.90
2022-10-23T06:51:33.272Z,8.60
2022-10-23T06:54:00.295Z,7.80
2022-10-23T06:56:50.766Z,8.60
2022-10-23T06:59:20.733Z,7.20
2022-10-23T07:01:49.479Z,6.80
2022-10-23T07:04:16.908Z,6.10
2022-10-23T07:06:44.113Z,6.20
2022-10-23T07:09:10.939Z,6.90
2022-10-23T07:12:03.937Z,5.90
2022-10-23T07:14:38.885Z,6.10
2022-10-23T07:17:06.437Z,5.90
2022-10-23T07:19:33.231Z,6.70
2022-10-23T07:22:14.902Z,6.80
2022-10-23T07:24:47.414Z,7.20
2022-10-23T07:27:20.435Z,7.00
2022-10-23T07:29:53.684Z,6.30
2022-10-23T07:32:20.578Z,5.70
2022-10-23T07:35:06.279Z,6.10
2022-10-23T07:37:34.744Z,5.80
2022-10-23T07:40:04.373Z,6.30
2022-10-23T07:42:31.928Z,5.40
2022-10-23T07:44:58.697Z,5.40
2022-10-23T07:47:25.444Z,6.80
2022-10-23T07:49:52.525Z,5.20
2022-10-23T07:52:20.166Z,5.20
2022-10-23T07:55:09.346Z,5.20
2022-10-23T07:57:41.408Z,4.70
2022-10-23T08:00:17.960Z,4.90
2022-10-23T08:03:10.220Z,4.70
2022-10-23T08:05:37.146Z,4.50
2022-10-23T08:08:05.421Z,4.30
2022-10-23T08:10:33.098Z,3.90
2022-10-23T08:13:04.520Z,5.00
2022-10-23T08:15:50.892Z,4.30
2022-10-23T08:18:45.371Z,4.20
2022-10-23T08:21:12.348Z,3.70
2022-10-23T08:23:39.360Z,3.80
2022-10-23T08:26:07.134Z,4.40
2022-10-23T08:28:35.441Z,4.00
2022-10-23T08:31:14.819Z,3.90
2022-10-23T08:33:46.695Z,4.90
2022-10-23T08:36:19.085Z,4.40
2022-10-23T08:38:46.322Z,5.30
2022-10-23T08:41:27.698Z,4.70
2022-10-23T08:44:21.313Z,4.50
2022-10-23T08:47:00.854Z,3.90
2022-10-23T08:49:43.766Z,3.80
2022-10-23T08:52:26.955Z,3.30
2022-10-23T08:54:53.819Z,2.10
2022-10-23T08:57:24.715Z,2.20
2022-10-23T09:00:00.088Z,2.50
2022-10-23T09:02:41.276Z,3.00
2022-10-23T09:05:15.838Z,3.10
2022-10-23T09:08:15.634Z,4.30
2022-10-23T09:11:20.697Z,4.90
2022-10-23T09:13:50.119Z,4.20
2022-10-23T09:16:50.253Z,4.30
2022-10-23T09:19:27.618Z,3.80
2022-10-23T09:21:55.826Z,3.50
2022-10-23T09:24:30.911Z,2.70
2022-10-23T09:26:59.631Z,2.50
2022-10-23T09:29:35.310Z,2.50
2022-10-23T09:32:06.331Z,2.60
2022-10-23T09:34:34.869Z,3.30
2022-10-23T09:37:17.234Z,3.00
2022-10-23T09:39:44.074Z,3.00
2022-10-23T09:42:24.247Z,3.20
2022-10-23T09:44:54.084Z,2.90
2022-10-23T09:47:24.238Z,4.00
2022-10-23T09:49:53.605Z,5.10
2022-10-23T09:52:30.127Z,3.50
2022-10-23T09:54:59.981Z,3.70
2022-10-23T09:57:44.420Z,4.20
2022-10-23T10:00:19.296Z,3.50
2022-10-23T10:03:04.774Z,3.90
2022-10-23T10:05:41.805Z,3.70
2022-10-23T10:08:13.194Z,3.00
2022-10-23T10:11:11.562Z,3.10
2022-10-23T10:13:52.158Z,6.20
2022-10-23T10:16:45.487Z,4.30
2022-10-23T10:19:39.557Z,5.30
2022-10-23T10:22:29.401Z,2.30
2022-10-23T10:25:03.585Z,2.30
2022-10-23T10:28:02.968Z,2.70
2022-10-23T10:30:44.434Z,17.20
2022-10-23T10:33:28.316Z,6.60
2022-10-23T10:36:05.113Z,3.40
2022-10-23T10:38:47.094Z,2.60
2022-10-23T10:41:28.062Z,3.50
2022-10-23T10:44:31.300Z,4.50
2022-10-23T10:47:04.350Z,3.30
2022-10-23T10:50:10.953Z,3.20
2022-10-23T10:53:26.934Z,2.30
2022-10-23T10:55:56.807Z,3.20
2022-10-23T10:58:42.314Z,2.70
2022-10-23T11:01:28.384Z,2.80
2022-10-23T11:04:10.817Z,2.80
2022-10-23T11:06:38.205Z,2.50
2022-10-23T11:09:20.958Z,2.40
2022-10-23T11:11:48.894Z,2.70
2022-10-23T11:14:24.928Z,2.30
2022-10-23T11:17:04.405Z,2.30
2022-10-23T11:19:42.140Z,2.70
2022-10-23T11:22:24.002Z,2.70
2022-10-23T11:25:02.812Z,3.40
2022-10-23T11:27:32.747Z,2.90
2022-10-23T11:30:25.269Z,3.30
2022-10-23T11:32:54.740Z,2.80
2022-10-23T11:35:30.268Z,3.30
2022-10-23T11:38:08.695Z,2.60
2022-10-23T11:40:35.618Z,2.90
2022-10-23T11:43:02.317Z,3.00
2022-10-23T11:45:35.411Z,3.20
2022-10-23T11:48:18.645Z,2.60
2022-10-23T11:50:48.030Z,3.30
2022-10-23T11:53:38.508Z,3.50
2022-10-23T11:56:06.294Z,3.70
2022-10-23T11:58:45.184Z,3.20
2022-10-23T12:01:40.953Z,2.70
2022-10-23T12:04:17.720Z,2.90
2022-10-23T12:06:49.723Z,3.10
2022-10-23T12:09:51.641Z,2.90
2022-10-23T12:12:42.016Z,2.80
2022-10-23T12:15:21.682Z,3.50
2022-10-23T12:17:50.726Z,3.10
2022-10-23T12:20:37.244Z,3.50
2022-10-23T12:23:29.795Z,3.10
2022-10-23T12:26:33.822Z,3.40
2022-10-23T12:29:40.413Z,3.10
2022-10-23T12:32:24.881Z,3.10
2022-10-23T12:35:17.840Z,3.00
2022-10-23T12:38:00.416Z,3.20
2022-10-23T12:40:29.621Z,3.00
2022-10-23T12:43:00.151Z,3.20
2022-10-23T12:45:36.579Z,3.70
2022-10-23T12:48:03.819Z,3.80
2022-10-23T12:50:32.577Z,3.30
2022-10-23T12:53:06.021Z,3.50
2022-10-23T12:58:34.908Z,4.00
2022-10-23T13:01:05.611Z,3.40
2022-10-23T13:03:33.691Z,3.40
2022-10-23T13:06:03.202Z,4.00
2022-10-23T13:08:40.234Z,3.20
2022-10-23T13:11:36.522Z,3.80
2022-10-23T13:14:13.629Z,3.70
2022-10-23T13:16:40.465Z,3.00
2022-10-23T13:19:22.313Z,3.10
2022-10-23T13:21:49.142Z,3.10
2022-10-23T13:24:21.217Z,2.80
2022-10-23T13:26:48.632Z,3.50
2022-10-23T13:29:22.924Z,3.30
2022-10-23T13:31:50.353Z,3.90
2022-10-23T13:34:28.722Z,3.40
2022-10-23T13:36:58.251Z,5.60
2022-10-23T13:39:29.249Z,4.80
2022-10-23T13:42:00.925Z,5.30
2022-10-23T13:44:28.441Z,5.80
2022-10-23T13:46:55.997Z,4.10
2022-10-23T13:49:22.750Z,3.80
2022-10-23T13:51:54.456Z,3.60
2022-10-23T13:56:58.906Z,5.00
2022-10-23T13:59:25.581Z,5.20
2022-10-23T14:01:52.874Z,5.20
2022-10-23T14:04:20.588Z,5.30
2022-10-23T14:06:47.462Z,5.20
2022-10-23T14:09:16.592Z,7.50
2022-10-23T14:11:44.260Z,6.30
2022-10-23T14:14:11.113Z,5.30
2022-10-23T14:16:37.810Z,4.90
2022-10-23T14:19:04.764Z,4.80
2022-10-23T14:21:31.665Z,5.00
2022-10-23T14:23:58.811Z,4.90
2022-10-23T14:26:29.830Z,4.70
2022-10-23T14:29:00.661Z,4.90
2022-10-23T14:31:31.188Z,4.40
2022-10-23T14:34:00.113Z,5.00
2022-10-23T14:36:34.245Z,6.70
2022-10-23T14:39:10.055Z,4.90
2022-10-23T14:41:39.876Z,7.40
2022-10-23T14:44:07.018Z,5.20
2022-10-23T14:46:35.060Z,5.50
2022-10-23T14:49:02.604Z,5.70
2022-10-23T14:51:30.165Z,7.40
2022-10-23T14:54:02.357Z,5.90
2022-10-23T14:56:31.808Z,5.10
2022-10-23T14:59:02.071Z,6.50
2022-10-23T15:04:23.612Z,17.10
2022-10-23T15:06:50.841Z,17.70
2022-10-23T15:09:19.368Z,13.90
2022-10-23T15:11:46.809Z,15.90
2022-10-23T15:14:13.526Z,9.50
2022-10-23T15:16:43.305Z,14.50
2022-10-23T15:19:15.210Z,16.10
2022-10-23T15:21:46.866Z,24.50
2022-10-23T15:24:15.587Z,42.30
2022-10-23T15:26:43.479Z,34.00
2022-10-23T15:29:11.363Z,35.30
2022-10-23T15:31:38.080Z,14.90
2022-10-23T15:34:05.846Z,6.40
2022-10-23T15:36:33.044Z,6.90
2022-10-23T15:39:00.822Z,5.90
2022-10-23T15:41:31.884Z,5.20
2022-10-23T15:44:02.541Z,38.40
2022-10-23T15:46:29.606Z,54.90
2022-10-23T15:48:56.758Z,15.50
2022-10-23T15:51:25.555Z,44.70
2022-10-23T15:53:52.703Z,45.10
2022-10-23T15:56:19.642Z,28.40
2022-10-23T15:58:46.601Z,24.70
2022-10-23T16:01:13.568Z,44.40
2022-10-23T16:03:40.788Z,43.70
2022-10-23T16:06:13.502Z,44.20
2022-10-23T16:08:43.117Z,181.40
2022-10-23T16:11:32.865Z,68.70
2022-10-23T16:14:02.597Z,78.20
2022-10-23T16:16:30.418Z,52.80
2022-10-23T16:19:02.492Z,61.50
2022-10-23T16:21:35.313Z,65.90
2022-10-23T16:24:04.713Z,76.40
2022-10-23T16:26:33.657Z,65.50
2022-10-23T16:29:03.837Z,50.10
2022-10-23T16:31:31.089Z,132.40
2022-10-23T16:34:00.575Z,73.00
2022-10-23T16:36:28.191Z,54.50
2022-10-23T16:39:13.779Z,61.40
2022-10-23T16:41:59.183Z,53.70
2022-10-23T16:44:33.033Z,51.70
2022-10-23T16:47:03.394Z,46.10
2022-10-23T16:49:31.640Z,47.70
2022-10-23T16:51:58.317Z,57.80
2022-10-23T16:54:25.049Z,54.00
2022-10-23T16:56:51.824Z,47.60
2022-10-23T16:59:18.602Z,40.40
2022-10-23T17:01:45.421Z,36.70
2022-10-23T17:04:12.551Z,40.60
2022-10-23T17:06:39.228Z,40.70
2022-10-23T17:09:06.839Z,85.50
2022-10-23T17:11:38.469Z,23.30
2022-10-23T17:14:08.222Z,27.50
2022-10-23T17:16:44.018Z,19.40
2022-10-23T17:19:20.933Z,24.70
2022-10-23T17:21:55.336Z,43.30
2022-10-23T17:24:22.973Z,21.60
2022-10-23T17:26:50.005Z,19.90
2022-10-23T17:29:17.755Z,21.00
2022-10-23T17:31:46.970Z,20.00
2022-10-23T17:34:17.415Z,19.90
2022-10-23T17:36:48.924Z,20.40
2022-10-23T17:39:22.456Z,22.50
2022-10-23T17:41:49.716Z,17.10
2022-10-23T17:44:17.169Z,14.40
2022-10-23T17:46:43.823Z,15.70
2022-10-23T17:49:11.495Z,14.80
2022-10-23T17:51:38.499Z,31.40
2022-10-23T17:54:08.176Z,30.70
2022-10-23T17:56:37.125Z,30.70
2022-10-23T17:59:07.964Z,23.90
2022-10-23T18:01:34.808Z,21.00
2022-10-23T18:04:04.343Z,26.30
2022-10-23T18:06:34.676Z,26.90
2022-10-23T18:09:03.900Z,22.90
2022-10-23T18:11:34.507Z,36.50
2022-10-23T18:14:02.297Z,37.30
2022-10-23T18:16:29.218Z,45.10
2022-10-23T18:18:58.136Z,30.50
2022-10-23T18:21:27.176Z,23.30
2022-10-23T18:23:54.562Z,23.30
2022-10-23T18:26:27.360Z,24.80
2022-10-23T18:28:56.748Z,23.00
2022-10-23T18:31:26.410Z,17.50
2022-10-23T18:34:03.514Z,27.60
2022-10-23T18:36:33.300Z,11.90
2022-10-23T18:39:00.282Z,47.80
2022-10-23T18:41:27.546Z,69.00
2022-10-23T18:43:54.479Z,26.70
2022-10-23T18:46:21.538Z,28.10
2022-10-23T18:48:50.184Z,36.70
2022-10-23T18:51:23.754Z,45.20
2022-10-23T18:53:51.269Z,112.30
2022-10-23T18:56:22.713Z,81.80
2022-10-23T18:58:55.966Z,32.10
2022-10-23T19:01:24.295Z,47.40
2022-10-23T19:03:51.251Z,38.00
2022-10-23T19:06:19.706Z,24.50
2022-10-23T19:08:47.264Z,39.60
2022-10-23T19:11:15.863Z,38.40
2022-10-23T19:13:42.905Z,34.80
2022-10-23T19:16:12.562Z,32.10
2022-10-23T19:18:43.097Z,32.60
2022-10-23T19:21:10.739Z,30.70
2022-10-23T19:23:40.182Z,16.70
2022-10-23T19:26:10.062Z,24.20
2022-10-23T19:28:39.528Z,22.40
2022-10-23T19:31:09.378Z,15.10
2022-10-23T19:33:38.363Z,35.80
2022-10-23T19:36:07.899Z,41.40
2022-10-23T19:38:39.598Z,36.40
2022-10-23T19:41:06.858Z,51.30
2022-10-23T19:43:33.759Z,42.20
2022-10-23T19:46:03.970Z,42.60
2022-10-23T19:48:33.171Z,36.60
2022-10-23T19:50:59.878Z,24.20
2022-10-23T19:53:26.662Z,22.60
2022-10-23T19:56:07.607Z,29.80
2022-10-23T19:58:34.642Z,16.90
2022-10-23T20:01:14.064Z,10.60
2022-10-23T20:03:42.141Z,10.80
2022-10-23T20:06:14.327Z,10.30
2022-10-23T20:08:41.698Z,16.20
2022-10-23T20:11:20.533Z,14.80
2022-10-23T20:13:48.972Z,11.00
2022-10-23T20:16:20.484Z,45.30
2022-10-23T20:18:47.674Z,22.20
2022-10-23T20:21:14.954Z,18.40
2022-10-23T20:23:42.165Z,27.80
2022-10-23T20:26:13.088Z,25.10
2022-10-23T20:28:39.930Z,49.00
2022-10-23T20:31:10.949Z,16.00
2022-10-23T20:33:40.053Z,21.60
2022-10-23T20:36:09.658Z,17.40
2022-10-23T20:38:36.581Z,34.60
2022-10-23T20:41:05.216Z,11.10
2022-10-23T20:43:35.817Z,21.30
2022-10-23T20:46:04.749Z,18.80
2022-10-23T20:48:35.269Z,9.10
2022-10-23T20:51:06.119Z,14.70
2022-10-23T20:53:35.543Z,13.60
2022-10-23T20:56:11.140Z,15.40
2022-10-23T20:58:37.898Z,18.70
2022-10-23T21:01:07.678Z,11.60
2022-10-23T21:03:35.245Z,9.20
2022-10-23T21:06:07.345Z,20.00
2022-10-23T21:08:34.720Z,11.00
2022-10-23T21:11:01.377Z,9.30
2022-10-23T21:13:29.229Z,12.70
2022-10-23T21:15:56.685Z,18.10
2022-10-23T21:18:34.050Z,7.00
2022-10-23T21:21:12.346Z,6.40
2022-10-23T21:23:39.475Z,7.20
2022-10-23T21:26:07.615Z,12.90
2022-10-23T21:28:34.650Z,8.20
2022-10-23T21:31:03.262Z,8.10
2022-10-23T21:33:30.178Z,10.50
2022-10-23T21:35:58.314Z,13.40
2022-10-23T21:38:26.383Z,8.10
2022-10-23T21:40:53.064Z,17.80
2022-10-23T21:43:20.410Z,11.70
2022-10-23T21:45:47.078Z,16.00
2022-10-23T21:48:13.837Z,16.20
2022-10-23T21:50:40.903Z,24.80
2022-10-23T21:53:07.654Z,11.00
2022-10-23T21:55:34.407Z,6.90
2022-10-23T21:58:01.074Z,7.40
2022-10-23T22:00:27.792Z,6.40
2022-10-23T22:02:54.509Z,6.10
2022-10-23T22:05:21.293Z,24.50
2022-10-23T22:07:48.105Z,27.00
2022-10-23T22:10:14.994Z,25.50
2022-10-23T22:12:41.677Z,31.40
2022-10-23T22:15:08.930Z,13.80
2022-10-23T22:17:35.692Z,11.70
2022-10-23T22:20:02.606Z,10.20
2022-10-23T22:22:29.300Z,11.80
2022-10-23T22:24:55.960Z,10.80
2022-10-23T22:27:22.725Z,17.70
2022-10-23T22:29:49.445Z,11.40
2022-10-23T22:32:16.047Z,10.30
2022-10-23T22:34:52.987Z,13.40
2022-10-23T22:37:20.272Z,14.60
2022-10-23T22:39:50.354Z,13.00
2022-10-23T22:42:17.233Z,29.90
2022-10-23T22:44:43.791Z,12.40
2022-10-23T22:47:10.526Z,15.00
2022-10-23T22:49:37.862Z,14.00
2022-10-23T22:52:04.724Z,8.10
2022-10-23T22:54:31.894Z,13.10
2022-10-23T22:56:58.621Z,6.40
2022-10-23T22:59:25.509Z,4.00
2022-10-23T23:01:52.306Z,4.70
2022-10-23T23:04:37.436Z,8.50
2022-10-23T23:07:08.223Z,6.00
2022-10-23T23:09:37.128Z,5.90
2022-10-23T23:12:05.022Z,7.50
2022-10-23T23:14:31.701Z,7.50
2022-10-23T23:16:58.883Z,9.50
2022-10-23T23:19:26.165Z,8.90
2022-10-23T23:21:57.722Z,21.00
2022-10-23T23:24:25.291Z,9.40
2022-10-23T23:26:52.061Z,9.70
2022-10-23T23:29:19.063Z,7.80
2022-10-23T23:31:45.974Z,22.40
2022-10-23T23:34:13.087Z,10.70
2022-10-23T23:36:40.594Z,15.20
2022-10-23T23:39:07.472Z,14.60
2022-10-23T23:41:34.212Z,8.60
2022-10-23T23:44:00.811Z,13.60
2022-10-23T23:46:27.495Z,7.90
2022-10-23T23:48:54.218Z,14.00
2022-10-23T23:51:24.069Z,11.40
2022-10-23T23:53:51.990Z,8.70
2022-10-23T23:56:19.365Z,10.50
2022-10-23T23:58:46.264Z,9.40
